Time;durP1;ratioP1;P1;durP2;ratioP2;P2;SDS_P1;SDS_P2;PMS_P1;PMS_P2;Temp;Humidity;BMP_temperature;BMP_pressure;BME280_temperature;BME280_humidity;BME280_pressure;Samples;Min_cycle;Max_cycle;Signal;HPM_P1;HPM_P2
2023/12/20 00:00:14;;;;;;;12.50;9.00;;;;;;;7.48;82.69;99374.29;130484;1262;107273;-90
2023/12/20 00:03:39;;;;;;;13.00;8.90;;;;;;;7.48;82.75;99369.69;130426;1261;109972;-89
2023/12/20 00:06:45;;;;;;;14.60;9.40;;;;;;;7.51;83.01;99367.71;130453;1264;107607;-89
2023/12/20 00:09:50;;;;;;;13.30;9.10;;;;;;;7.50;82.91;99369.00;130394;1263;106748;-89
2023/12/20 00:12:56;;;;;;;14.20;9.40;;;;;;;7.49;82.87;99362.91;130509;1259;106708;-90
2023/12/20 00:16:02;;;;;;;12.10;7.90;;;;;;;7.47;83.05;99365.06;130453;1263;106566;-90
2023/12/20 00:19:07;;;;;;;11.00;7.80;;;;;;;7.45;82.93;99363.80;130473;1264;105844;-90
2023/12/20 00:22:13;;;;;;;13.00;8.40;;;;;;;7.45;83.12;99358.52;130665;1260;107441;-89
2023/12/20 00:25:19;;;;;;;13.10;8.80;;;;;;;7.48;83.13;99354.52;130416;1264;107454;-89
2023/12/20 00:28:25;;;;;;;15.70;8.70;;;;;;;7.50;83.14;99355.00;130348;1260;107369;-92
2023/12/20 00:31:30;;;;;;;12.10;8.50;;;;;;;7.50;83.26;99357.84;130377;1258;107907;-90
2023/12/20 00:34:36;;;;;;;12.10;8.50;;;;;;;7.51;83.17;99354.80;130506;1259;105509;-89
2023/12/20 00:37:42;;;;;;;11.20;8.10;;;;;;;7.49;83.31;99355.08;130371;1264;107676;-89
2023/12/20 00:40:49;;;;;;;9.50;6.80;;;;;;;7.45;83.26;99351.77;130459;1264;106786;-90
2023/12/20 00:43:55;;;;;;;11.80;8.20;;;;;;;7.45;83.39;99344.30;130353;1261;107469;-90
2023/12/20 00:47:01;;;;;;;13.60;8.80;;;;;;;7.46;83.59;99342.45;130309;1264;107560;-90
2023/12/20 00:50:10;;;;;;;12.10;8.50;;;;;;;7.49;83.41;99342.21;130384;1259;108656;-90
2023/12/20 00:53:15;;;;;;;12.70;9.00;;;;;;;7.47;83.81;99345.38;130550;1263;106817;-90
2023/12/20 00:56:21;;;;;;;13.10;8.50;;;;;;;7.44;83.86;99338.40;130374;1264;107722;-89
2023/12/20 00:59:27;;;;;;;11.10;7.90;;;;;;;7.40;83.86;99339.49;130371;1258;107192;-91
2023/12/20 01:02:32;;;;;;;11.30;7.10;;;;;;;7.38;83.87;99333.78;130504;1264;107464;-90
2023/12/20 01:05:40;;;;;;;12.30;8.10;;;;;;;7.39;84.02;99339.00;130801;1264;107274;-90
2023/12/20 01:08:46;;;;;;;11.10;7.80;;;;;;;7.41;83.93;99334.16;130669;1263;107527;-91
2023/12/20 01:11:51;;;;;;;12.30;8.20;;;;;;;7.43;83.86;99330.96;130777;1261;107540;-91
2023/12/20 01:14:58;;;;;;;12.70;8.10;;;;;;;7.44;84.22;99326.92;130376;1263;107297;-91
2023/12/20 01:18:04;;;;;;;12.00;8.10;;;;;;;7.46;84.19;99324.58;130447;1263;107610;-90
2023/12/20 01:21:10;;;;;;;12.60;8.00;;;;;;;7.42;84.27;99323.55;130436;1263;107545;-91
2023/12/20 01:24:15;;;;;;;9.30;6.50;;;;;;;7.39;84.37;99317.16;130514;1263;107321;-90
2023/12/20 01:27:21;;;;;;;10.10;6.70;;;;;;;7.39;84.52;99322.87;130315;1261;108065;-90
2023/12/20 01:30:27;;;;;;;12.60;7.30;;;;;;;7.43;84.38;99327.22;130383;1264;105897;-90
2023/12/20 01:33:32;;;;;;;9.70;7.30;;;;;;;7.45;84.74;99324.38;130584;1258;108720;-89
2023/12/20 01:36:40;;;;;;;9.80;7.30;;;;;;;7.43;84.76;99315.86;130347;1264;106339;-89
2023/12/20 01:39:46;;;;;;;11.30;7.20;;;;;;;7.41;84.91;99313.42;130581;1261;107140;-92
2023/12/20 01:43:00;;;;;;;10.40;6.60;;;;;;;7.39;84.73;99307.25;130785;1259;108312;-89
2023/12/20 01:46:08;;;;;;;8.60;6.40;;;;;;;7.38;84.83;99306.11;131490;1259;108093;-90
2023/12/20 01:49:14;;;;;;;10.10;7.00;;;;;;;7.37;84.99;99298.08;131392;1263;107084;-90
2023/12/20 01:52:21;;;;;;;10.30;7.60;;;;;;;7.40;85.09;99294.25;131266;1258;107627;-91
2023/12/20 01:55:28;;;;;;;10.40;7.60;;;;;;;7.43;85.06;99290.77;131144;1264;107527;-90
2023/12/20 01:58:34;;;;;;;9.90;7.60;;;;;;;7.42;84.97;99291.02;130410;1260;107356;-89
2023/12/20 02:01:40;;;;;;;9.70;7.60;;;;;;;7.41;85.08;99279.81;130460;1263;105518;-90
2023/12/20 02:04:47;;;;;;;8.80;6.40;;;;;;;7.38;85.45;99276.42;130399;1259;107671;-90
2023/12/20 02:07:52;;;;;;;8.70;6.30;;;;;;;7.33;85.44;99266.33;131352;1258;107502;-90
2023/12/20 02:10:58;;;;;;;8.30;6.50;;;;;;;7.34;85.44;99270.32;130643;1258;107262;-89
2023/12/20 02:14:04;;;;;;;9.90;7.10;;;;;;;7.36;85.43;99280.30;130702;1263;107588;-89
2023/12/20 02:17:10;;;;;;;9.60;7.30;;;;;;;7.40;85.30;99275.30;130897;1264;107524;-90
2023/12/20 02:20:16;;;;;;;8.90;6.50;;;;;;;7.41;85.42;99263.90;130937;1259;108629;-89
2023/12/20 02:23:22;;;;;;;8.20;6.20;;;;;;;7.41;85.40;99257.73;131126;1263;107161;-91
2023/12/20 02:26:28;;;;;;;8.20;6.10;;;;;;;7.41;85.61;99255.96;131020;1263;107217;-90
2023/12/20 02:29:34;;;;;;;8.80;6.10;;;;;;;7.42;85.79;99260.71;131013;1262;107451;-89
2023/12/20 02:32:40;;;;;;;8.90;6.20;;;;;;;7.45;85.68;99247.34;131103;1264;107553;-91
2023/12/20 02:35:47;;;;;;;8.90;6.00;;;;;;;7.46;85.83;99252.25;131489;1260;107541;-89
2023/12/20 02:38:53;;;;;;;8.30;6.10;;;;;;;7.45;85.74;99242.39;131178;1261;107434;-91
2023/12/20 02:41:58;;;;;;;7.70;6.00;;;;;;;7.45;85.67;99244.88;131224;1260;107494;-91
2023/12/20 02:45:06;;;;;;;9.60;6.20;;;;;;;7.43;85.91;99243.85;130735;1261;107780;-91
2023/12/20 02:48:12;;;;;;;6.70;4.70;;;;;;;7.40;86.01;99247.58;130749;1262;107607;-90
2023/12/20 02:51:18;;;;;;;7.70;5.40;;;;;;;7.39;86.11;99239.81;130460;1263;107439;-90
2023/12/20 02:54:24;;;;;;;6.80;5.30;;;;;;;7.40;86.11;99237.41;130324;1260;107091;-89
2023/12/20 02:57:29;;;;;;;6.60;4.40;;;;;;;7.41;85.96;99242.25;130408;1263;106230;-89
2023/12/20 03:00:35;;;;;;;5.80;4.50;;;;;;;7.41;85.91;99236.45;130533;1264;105888;-89
2023/12/20 03:03:41;;;;;;;5.50;4.30;;;;;;;7.39;86.06;99237.70;131195;1259;107483;-89
2023/12/20 03:06:46;;;;;;;4.50;3.30;;;;;;;7.36;85.94;99239.30;131191;1258;107678;-92
2023/12/20 03:09:52;;;;;;;4.60;3.00;;;;;;;7.33;85.83;99231.41;131219;1261;107497;-90
2023/12/20 03:12:58;;;;;;;4.70;3.40;;;;;;;7.32;86.11;99225.36;130966;1263;105457;-90
2023/12/20 03:16:08;;;;;;;4.80;3.20;;;;;;;7.31;86.34;99223.56;130587;1261;106308;-89
2023/12/20 03:19:14;;;;;;;4.90;3.40;;;;;;;7.32;86.35;99231.77;130568;1263;107560;-90
2023/12/20 03:22:20;;;;;;;4.30;3.20;;;;;;;7.26;86.24;99234.13;130879;1258;106488;-90
2023/12/20 03:25:25;;;;;;;4.60;3.20;;;;;;;7.22;86.53;99230.95;130609;1259;105877;-89
2023/12/20 03:28:32;;;;;;;4.90;3.00;;;;;;;7.21;86.45;99232.05;130643;1260;107817;-90
2023/12/20 03:31:40;;;;;;;6.20;3.80;;;;;;;7.20;86.66;99233.12;130834;1264;107641;-89
2023/12/20 03:34:46;;;;;;;5.10;3.50;;;;;;;7.23;86.70;99224.72;130881;1261;107482;-90
2023/12/20 03:37:51;;;;;;;5.60;3.90;;;;;;;7.24;86.33;99217.84;130459;1262;107906;-84
2023/12/20 03:40:57;;;;;;;5.30;4.20;;;;;;;7.25;86.66;99218.13;131171;1260;107690;-84
2023/12/20 03:44:02;;;;;;;4.70;3.80;;;;;;;7.25;86.79;99213.45;130915;1261;106248;-85
2023/12/20 03:47:08;;;;;;;4.70;3.50;;;;;;;7.24;86.59;99208.83;130494;1263;108697;-79
2023/12/20 03:50:14;;;;;;;4.70;3.10;;;;;;;7.25;86.67;99216.90;130432;1263;108533;-79
2023/12/20 03:53:20;;;;;;;5.10;4.00;;;;;;;7.26;87.02;99214.48;130310;1263;107692;-80
2023/12/20 03:56:25;;;;;;;5.60;4.10;;;;;;;7.27;86.99;99218.14;130438;1261;106946;-79
2023/12/20 03:59:31;;;;;;;5.70;4.20;;;;;;;7.28;86.99;99214.06;130174;1264;108708;-79
2023/12/20 04:02:37;;;;;;;6.10;4.60;;;;;;;7.28;86.93;99214.60;130214;1263;106730;-80
2023/12/20 04:05:42;;;;;;;5.50;4.60;;;;;;;7.28;86.79;99216.79;130149;1261;107687;-79
2023/12/20 04:08:48;;;;;;;5.10;4.10;;;;;;;7.26;86.87;99216.05;130180;1263;107738;-79
2023/12/20 04:11:53;;;;;;;5.20;3.90;;;;;;;7.26;87.05;99218.39;130185;1264;106578;-79
2023/12/20 04:14:59;;;;;;;6.20;4.60;;;;;;;7.29;86.99;99219.61;130363;1261;107729;-79
2023/12/20 04:18:05;;;;;;;5.00;4.40;;;;;;;7.33;87.09;99220.30;130397;1262;108225;-80
2023/12/20 04:21:11;;;;;;;6.50;4.90;;;;;;;7.36;87.00;99218.56;130199;1263;107644;-80
2023/12/20 04:24:16;;;;;;;5.80;5.00;;;;;;;7.39;87.06;99221.13;130223;1259;108713;-79
2023/12/20 04:27:22;;;;;;;5.90;4.80;;;;;;;7.38;87.00;99216.45;130319;1263;106598;-79
2023/12/20 04:30:27;;;;;;;6.10;4.40;;;;;;;7.35;87.08;99218.02;130100;1260;108835;-79
2023/12/20 04:33:33;;;;;;;6.00;4.30;;;;;;;7.31;87.16;99215.41;130220;1258;108852;-79
2023/12/20 04:36:39;;;;;;;5.80;4.30;;;;;;;7.32;87.23;99214.29;130298;1264;107579;-80
2023/12/20 04:39:44;;;;;;;6.10;4.80;;;;;;;7.34;87.21;99214.93;130379;1262;107676;-80
2023/12/20 04:42:50;;;;;;;6.40;4.90;;;;;;;7.34;87.35;99207.30;130181;1263;105819;-79
2023/12/20 04:45:56;;;;;;;6.30;4.60;;;;;;;7.34;87.13;99203.81;130173;1258;106487;-79
2023/12/20 04:49:02;;;;;;;6.30;4.60;;;;;;;7.32;87.18;99201.15;130238;1261;107840;-79
2023/12/20 04:52:08;;;;;;;5.50;4.30;;;;;;;7.31;87.20;99194.91;130123;1258;108639;-80
2023/12/20 04:55:13;;;;;;;4.70;3.90;;;;;;;7.31;87.27;99194.70;130227;1258;107502;-80
2023/12/20 04:58:19;;;;;;;6.70;4.00;;;;;;;7.29;87.31;99190.17;130234;1259;107641;-80
2023/12/20 05:01:24;;;;;;;6.30;4.20;;;;;;;7.30;87.48;99194.94;130304;1264;108776;-79
2023/12/20 05:04:30;;;;;;;7.40;5.00;;;;;;;7.32;87.35;99198.63;130113;1264;109268;-80
2023/12/20 05:07:36;;;;;;;5.80;4.50;;;;;;;7.31;87.38;99196.23;130293;1263;107663;-80
2023/12/20 05:10:41;;;;;;;7.60;4.60;;;;;;;7.29;87.10;99196.13;130231;1261;106580;-78
2023/12/20 05:13:47;;;;;;;6.60;4.80;;;;;;;7.29;87.33;99196.33;130361;1263;109150;-80
2023/12/20 05:16:52;;;;;;;5.40;3.90;;;;;;;7.27;87.34;99195.03;130359;1262;108688;-80
2023/12/20 05:19:58;;;;;;;4.50;3.40;;;;;;;7.24;87.51;99196.77;130383;1261;106875;-80
2023/12/20 05:23:04;;;;;;;5.10;3.60;;;;;;;7.24;87.75;99200.15;130419;1259;106932;-80
2023/12/20 05:26:09;;;;;;;4.50;3.50;;;;;;;7.26;87.50;99197.14;130368;1261;108736;-79
2023/12/20 05:29:15;;;;;;;4.90;4.00;;;;;;;7.27;87.50;99196.32;130381;1263;107790;-80
2023/12/20 05:32:20;;;;;;;4.40;3.90;;;;;;;7.25;87.45;99197.45;130333;1261;108953;-80
2023/12/20 05:35:26;;;;;;;4.10;3.40;;;;;;;7.22;87.61;99198.78;130241;1259;107737;-78
2023/12/20 05:38:31;;;;;;;5.10;4.20;;;;;;;7.22;87.51;99193.70;130231;1259;107784;-79
2023/12/20 05:41:37;;;;;;;4.50;4.00;;;;;;;7.17;87.87;99196.52;130425;1263;108772;-80
2023/12/20 05:44:42;;;;;;;5.00;4.00;;;;;;;7.14;87.61;99202.25;130447;1263;107723;-80
2023/12/20 05:47:48;;;;;;;4.20;3.30;;;;;;;7.16;87.73;99200.34;130414;1261;106745;-80
2023/12/20 05:50:54;;;;;;;4.90;3.70;;;;;;;7.20;87.83;99198.10;130503;1262;108674;-80
2023/12/20 05:53:59;;;;;;;5.20;3.60;;;;;;;7.24;87.62;99199.59;130472;1261;106827;-79
2023/12/20 05:57:06;;;;;;;4.60;3.50;;;;;;;7.27;87.91;99193.33;130391;1262;107002;-80
2023/12/20 06:00:14;;;;;;;4.40;3.50;;;;;;;7.26;87.61;99192.04;130200;1261;108720;-79
2023/12/20 06:03:19;;;;;;;4.00;3.00;;;;;;;7.24;87.70;99191.73;130280;1264;107811;-79
2023/12/20 06:06:25;;;;;;;4.30;2.80;;;;;;;7.23;87.66;99193.88;130286;1264;108852;-79
2023/12/20 06:09:31;;;;;;;4.70;3.00;;;;;;;7.25;87.80;99193.55;130126;1261;108396;-79
2023/12/20 06:12:36;;;;;;;4.00;3.50;;;;;;;7.28;87.86;99193.61;130199;1263;106428;-80
2023/12/20 06:15:42;;;;;;;5.50;4.80;;;;;;;7.29;87.86;99195.04;130272;1263;107716;-80
2023/12/20 06:18:47;;;;;;;5.80;4.30;;;;;;;7.32;87.78;99195.44;130184;1263;107645;-79
2023/12/20 06:21:53;;;;;;;6.10;4.50;;;;;;;7.31;87.93;99189.34;130401;1261;106702;-79
2023/12/20 06:24:59;;;;;;;13.30;8.50;;;;;;;7.29;87.79;99194.37;130459;1259;108491;-79
2023/12/20 06:28:05;;;;;;;22.90;11.00;;;;;;;7.23;87.96;99192.45;130343;1259;108674;-79
2023/12/20 06:31:11;;;;;;;16.90;8.30;;;;;;;7.17;87.84;99190.86;130255;1262;108606;-78
2023/12/20 06:34:16;;;;;;;26.00;11.80;;;;;;;7.15;88.06;99189.45;130179;1261;107074;-79
2023/12/20 06:37:22;;;;;;;17.40;8.40;;;;;;;7.18;87.99;99189.64;130312;1258;107759;-80
2023/12/20 06:40:28;;;;;;;19.20;9.00;;;;;;;7.21;88.01;99185.98;130452;1264;106546;-80
2023/12/20 06:43:34;;;;;;;19.10;9.30;;;;;;;7.20;88.26;99185.18;130445;1258;108364;-80
2023/12/20 06:46:39;;;;;;;30.10;13.70;;;;;;;7.17;88.13;99189.74;130448;1260;107814;-81
2023/12/20 06:49:45;;;;;;;22.40;12.10;;;;;;;7.15;87.91;99189.42;130258;1258;106684;-78
2023/12/20 06:52:51;;;;;;;8.10;5.50;;;;;;;7.12;87.88;99186.61;130161;1258;107034;-78
2023/12/20 06:55:57;;;;;;;11.90;6.80;;;;;;;7.06;87.99;99187.80;130174;1261;108639;-78
2023/12/20 06:59:02;;;;;;;11.70;8.40;;;;;;;7.04;88.11;99186.23;130271;1263;106540;-79
2023/12/20 07:02:09;;;;;;;7.20;5.20;;;;;;;7.06;88.25;99196.27;130192;1261;106845;-79
2023/12/20 07:05:16;;;;;;;6.50;5.30;;;;;;;7.11;88.24;99198.71;130138;1262;108165;-79
2023/12/20 07:08:22;;;;;;;6.40;5.40;;;;;;;7.12;88.11;99192.20;130242;1263;107191;-79
2023/12/20 07:11:32;;;;;;;7.70;5.60;;;;;;;7.12;88.27;99192.77;130232;1259;108082;-84
2023/12/20 07:14:38;;;;;;;6.30;4.50;;;;;;;7.11;88.18;99190.26;130387;1260;108591;-84
2023/12/20 07:17:43;;;;;;;5.90;4.40;;;;;;;7.11;88.32;99191.25;130414;1258;106540;-83
2023/12/20 07:20:49;;;;;;;9.10;5.70;;;;;;;7.13;88.14;99193.55;130340;1260;108413;-84
2023/12/20 07:23:54;;;;;;;7.60;5.30;;;;;;;7.17;88.26;99196.86;130423;1262;106828;-84
2023/12/20 07:27:01;;;;;;;8.70;6.00;;;;;;;7.20;88.21;99197.25;130426;1261;108667;-84
2023/12/20 07:30:09;;;;;;;7.10;5.50;;;;;;;7.21;88.12;99197.85;130443;1264;108837;-79
2023/12/20 07:33:15;;;;;;;6.50;5.30;;;;;;;7.21;88.25;99202.61;130324;1263;108703;-79
2023/12/20 07:36:22;;;;;;;6.60;5.00;;;;;;;7.20;88.20;99199.04;130396;1261;106789;-79
2023/12/20 07:39:27;;;;;;;4.10;3.70;;;;;;;7.17;88.23;99202.45;130412;1261;108661;-77
2023/12/20 07:42:36;;;;;;;5.00;3.40;;;;;;;7.15;88.06;99200.26;130309;1259;107670;-76
2023/12/20 07:45:41;;;;;;;5.50;4.30;;;;;;;7.17;88.37;99204.84;130310;1259;108768;-76
2023/12/20 07:48:47;;;;;;;5.30;3.90;;;;;;;7.21;88.33;99210.36;130347;1259;108366;-76
2023/12/20 07:51:52;;;;;;;6.50;5.40;;;;;;;7.27;88.41;99206.93;130393;1264;107398;-76
2023/12/20 07:54:58;;;;;;;8.10;5.10;;;;;;;7.30;88.36;99200.30;130274;1258;107269;-77
2023/12/20 07:58:05;;;;;;;8.10;5.00;;;;;;;7.30;88.42;99199.95;130245;1259;107479;-77
2023/12/20 08:01:11;;;;;;;4.50;3.80;;;;;;;7.27;88.17;99201.46;130254;1263;108602;-77
2023/12/20 08:04:16;;;;;;;4.30;3.10;;;;;;;7.25;88.44;99200.63;130155;1262;108556;-77
2023/12/20 08:07:22;;;;;;;6.00;4.00;;;;;;;7.26;88.48;99198.73;130261;1263;107680;-77
2023/12/20 08:10:29;;;;;;;5.90;4.10;;;;;;;7.29;88.62;99195.23;130253;1258;107745;-77
2023/12/20 08:13:35;;;;;;;10.50;8.40;;;;;;;7.34;88.38;99196.68;130202;1261;108725;-77
2023/12/20 08:16:40;;;;;;;9.20;5.80;;;;;;;7.35;88.28;99197.66;130234;1259;107763;-77
2023/12/20 08:19:46;;;;;;;5.20;4.30;;;;;;;7.36;88.54;99199.64;130279;1262;107272;-79
2023/12/20 08:22:51;;;;;;;4.80;4.20;;;;;;;7.37;88.35;99199.05;130229;1263;107919;-78
2023/12/20 08:25:57;;;;;;;4.50;3.30;;;;;;;7.35;88.42;99196.58;130192;1261;107061;-78
2023/12/20 08:29:02;;;;;;;4.70;3.40;;;;;;;7.32;88.23;99195.61;130149;1274;106536;-78
2023/12/20 08:32:08;;;;;;;5.70;4.20;;;;;;;7.32;88.30;99193.03;130333;1263;108700;-78
2023/12/20 08:35:14;;;;;;;5.60;4.50;;;;;;;7.35;88.39;99193.75;130156;1264;108666;-77
2023/12/20 08:38:19;;;;;;;6.40;4.60;;;;;;;7.40;88.55;99188.85;130262;1263;107882;-78
2023/12/20 08:41:25;;;;;;;7.10;4.90;;;;;;;7.41;88.48;99192.21;130288;1258;106214;-78
2023/12/20 08:44:31;;;;;;;7.80;5.30;;;;;;;7.39;88.56;99191.57;130338;1263;108495;-77
2023/12/20 08:47:36;;;;;;;7.00;4.80;;;;;;;7.38;88.34;99192.39;130377;1263;107620;-79
2023/12/20 08:50:42;;;;;;;5.40;3.90;;;;;;;7.38;88.51;99194.68;130253;1260;107508;-78
2023/12/20 08:53:49;;;;;;;4.70;3.40;;;;;;;7.38;88.64;99195.16;130259;1264;108825;-79
2023/12/20 08:56:54;;;;;;;6.30;4.20;;;;;;;7.40;88.70;99197.11;130221;1264;106882;-78
2023/12/20 09:00:00;;;;;;;6.20;4.60;;;;;;;7.42;88.74;99197.31;130273;1263;107642;-77
2023/12/20 09:03:06;;;;;;;6.80;4.50;;;;;;;7.45;88.63;99194.12;130241;1258;109545;-79
2023/12/20 09:06:12;;;;;;;5.90;4.20;;;;;;;7.47;88.63;99191.77;130204;1262;106532;-79
2023/12/20 09:09:17;;;;;;;6.50;4.60;;;;;;;7.47;88.30;99190.91;130169;1264;107828;-79
2023/12/20 09:12:23;;;;;;;8.30;5.40;;;;;;;7.44;88.44;99185.85;130154;1265;107814;-78
2023/12/20 09:15:30;;;;;;;7.10;4.10;;;;;;;7.44;88.71;99181.08;130193;1263;108776;-80
2023/12/20 09:18:35;;;;;;;6.30;4.00;;;;;;;7.46;88.63;99177.54;130530;1258;107678;-80
2023/12/20 09:21:41;;;;;;;4.90;3.70;;;;;;;7.52;88.54;99180.52;130532;1262;108164;-80
2023/12/20 09:24:46;;;;;;;6.20;3.90;;;;;;;7.58;88.84;99174.42;130404;1264;108663;-80
2023/12/20 09:27:52;;;;;;;4.90;3.90;;;;;;;7.61;88.45;99168.06;130263;1264;107781;-79
2023/12/20 09:30:57;;;;;;;6.60;4.20;;;;;;;7.63;88.68;99168.00;130324;1263;106557;-79
2023/12/20 09:34:03;;;;;;;4.70;3.90;;;;;;;7.64;88.62;99164.89;130320;1258;108866;-79
2023/12/20 09:37:09;;;;;;;5.00;3.10;;;;;;;7.62;88.72;99162.63;130303;1262;108375;-79
2023/12/20 09:40:18;;;;;;;4.10;2.80;;;;;;;7.60;88.65;99163.39;130249;1262;106925;-76
2023/12/20 09:43:28;;;;;;;8.00;4.40;;;;;;;7.61;88.82;99160.73;130247;1264;108664;-79
2023/12/20 09:46:36;;;;;;;11.40;8.30;;;;;;;7.61;88.55;99164.63;130530;1258;107164;-79
2023/12/20 09:49:44;;;;;;;9.80;5.20;;;;;;;7.61;88.62;99160.80;130507;1263;107658;-80
2023/12/20 09:52:52;;;;;;;10.50;6.90;;;;;;;7.59;88.58;99159.44;130477;1264;108580;-79
2023/12/20 09:56:01;;;;;;;12.00;6.50;;;;;;;7.57;88.61;99157.66;130527;1263;106091;-81
2023/12/20 09:59:06;;;;;;;7.00;3.80;;;;;;;7.56;88.74;99148.37;130633;1262;108647;-78
2023/12/20 10:02:15;;;;;;;5.40;3.60;;;;;;;7.56;88.76;99143.28;130498;1259;108645;-77
2023/12/20 10:05:28;;;;;;;6.70;4.70;;;;;;;7.57;88.79;99141.91;130432;1261;105614;-79
2023/12/20 10:08:35;;;;;;;;;;;;;;;7.59;88.77;99145.63;130527;1259;107797;-80
2023/12/20 10:11:42;;;;;;;5.20;3.50;;;;;;;7.61;88.70;99143.44;130371;1258;108210;-80
2023/12/20 10:14:47;;;;;;;13.70;7.90;;;;;;;7.62;88.82;99136.58;130231;1263;108619;-78
2023/12/20 10:17:54;;;;;;;11.70;7.30;;;;;;;7.62;88.40;99133.95;130228;1258;106595;-80
2023/12/20 10:21:01;;;;;;;9.60;5.90;;;;;;;7.61;88.62;99129.51;130233;1259;106482;-78
2023/12/20 10:24:07;;;;;;;8.60;4.70;;;;;;;7.57;88.56;99126.64;130317;1263;106545;-79
2023/12/20 10:27:13;;;;;;;7.80;4.40;;;;;;;7.55;88.61;99129.05;130224;1264;107251;-79
2023/12/20 10:30:18;;;;;;;6.70;3.80;;;;;;;7.56;88.51;99129.09;130240;1274;107402;-79
2023/12/20 10:33:28;;;;;;;6.60;4.10;;;;;;;7.54;88.91;99126.20;130361;1263;108870;-77
2023/12/20 10:36:36;;;;;;;8.40;4.50;;;;;;;7.54;88.36;99126.30;130492;1261;107877;-80
2023/12/20 10:39:43;;;;;;;11.40;4.50;;;;;;;7.50;88.20;99115.58;130465;1264;108701;-78
2023/12/20 10:42:51;;;;;;;9.40;4.80;;;;;;;7.40;88.15;99112.74;130386;1259;108014;-80
2023/12/20 10:45:57;;;;;;;8.70;4.30;;;;;;;7.29;88.37;99119.34;130148;1265;108398;-82
2023/12/20 10:49:05;;;;;;;12.50;5.00;;;;;;;7.29;88.57;99119.02;130518;1259;108650;-77
2023/12/20 10:52:12;;;;;;;15.60;7.20;;;;;;;7.32;88.60;99114.31;130233;1265;106542;-78
2023/12/20 10:55:18;;;;;;;12.30;7.20;;;;;;;7.38;88.72;99113.98;130265;1264;105984;-78
2023/12/20 10:58:25;;;;;;;11.70;6.90;;;;;;;7.40;88.64;99114.17;130249;1258;107824;-77
2023/12/20 11:01:31;;;;;;;10.60;7.10;;;;;;;7.39;88.73;99110.19;130281;1259;108709;-80
2023/12/20 11:04:48;;;;;;;11.60;7.50;;;;;;;7.41;88.59;99107.82;130423;1260;108631;-80
2023/12/20 11:07:59;;;;;;;9.30;6.60;;;;;;;7.38;88.33;99105.55;130319;1258;108990;-79
2023/12/20 11:11:14;;;;;;;8.50;5.30;;;;;;;7.25;88.27;99105.77;130450;1258;106631;-80
2023/12/20 11:14:24;;;;;;;8.70;5.90;;;;;;;7.18;88.17;99101.59;130479;1263;107584;-80
2023/12/20 11:17:30;;;;;;;7.10;4.60;;;;;;;7.17;88.36;99101.86;130263;1263;106971;-79
2023/12/20 11:20:40;;;;;;;5.20;3.30;;;;;;;7.18;88.45;99101.55;130299;1259;106903;-77
2023/12/20 11:23:45;;;;;;;3.60;2.80;;;;;;;7.16;87.51;99096.14;130301;1262;106568;-78
2023/12/20 11:26:56;;;;;;;3.80;2.60;;;;;;;7.13;87.82;99096.86;130199;1259;109189;-78
2023/12/20 11:30:05;;;;;;;5.10;2.80;;;;;;;7.16;87.88;99092.98;130198;1264;109781;-78
2023/12/20 11:33:11;;;;;;;4.60;3.20;;;;;;;7.18;87.44;99089.94;130344;1262;109475;-79
2023/12/20 11:36:20;;;;;;;5.80;3.80;;;;;;;7.21;87.70;99088.73;130139;1263;107273;-79
2023/12/20 11:39:28;;;;;;;6.20;3.70;;;;;;;7.24;87.39;99084.84;130206;1265;108757;-78
2023/12/20 11:42:40;;;;;;;7.70;3.70;;;;;;;7.28;87.44;99078.26;130843;1261;109011;-80
2023/12/20 11:45:51;;;;;;;4.50;3.20;;;;;;;7.31;87.43;99078.16;130696;1264;109059;-80
2023/12/20 11:48:57;;;;;;;5.70;2.90;;;;;;;7.30;87.18;99075.60;130583;1261;108527;-79
2023/12/20 11:52:03;;;;;;;8.20;4.30;;;;;;;7.24;87.44;99071.44;130439;1264;106462;-80
2023/12/20 11:55:09;;;;;;;8.10;3.60;;;;;;;7.19;87.42;99070.36;130352;1264;108419;-81
2023/12/20 11:58:16;;;;;;;12.80;6.60;;;;;;;7.18;87.50;99073.44;130517;1274;108760;-78
2023/12/20 12:01:23;;;;;;;12.10;6.80;;;;;;;7.19;87.48;99074.08;130570;1263;107830;-79
2023/12/20 12:04:29;;;;;;;8.70;4.90;;;;;;;7.21;87.82;99070.51;130729;1262;108410;-80
2023/12/20 12:07:34;;;;;;;9.40;5.50;;;;;;;7.23;87.60;99070.97;130769;1260;108374;-80
2023/12/20 12:10:40;;;;;;;12.50;8.50;;;;;;;7.26;87.75;99064.61;130750;1260;107362;-80
2023/12/20 12:13:45;;;;;;;6.40;4.30;;;;;;;7.25;87.52;99064.23;130521;1259;107098;-79
2023/12/20 12:16:53;;;;;;;59.90;40.30;;;;;;;7.22;87.80;99055.64;130428;1264;106884;-78
2023/12/20 12:20:07;;;;;;;91.40;42.30;;;;;;;7.22;87.67;99053.79;130365;1263;108697;-79
2023/12/20 12:23:13;;;;;;;24.80;13.10;;;;;;;7.21;87.80;99059.71;130446;1261;106751;-80
2023/12/20 12:26:19;;;;;;;133.90;76.00;;;;;;;7.22;87.92;99053.20;130825;1264;107253;-81
2023/12/20 12:29:25;;;;;;;29.30;20.80;;;;;;;7.30;87.76;99059.69;131206;1259;106540;-81
2023/12/20 12:32:32;;;;;;;98.10;73.20;;;;;;;7.34;87.70;99059.26;130999;1259;107190;-81
2023/12/20 12:35:37;;;;;;;227.80;168.20;;;;;;;7.35;87.65;99054.16;130704;1264;108388;-80
2023/12/20 12:38:44;;;;;;;47.20;28.70;;;;;;;7.34;87.53;99050.34;130737;1264;106278;-80
2023/12/20 12:41:49;;;;;;;22.90;13.30;;;;;;;7.32;87.40;99051.17;130761;1265;106757;-81
2023/12/20 12:44:55;;;;;;;19.80;12.10;;;;;;;7.30;87.49;99046.38;130723;1263;106522;-81
2023/12/20 12:48:00;;;;;;;10.50;7.90;;;;;;;7.23;87.04;99038.44;130689;1264;107642;-81
2023/12/20 12:51:07;;;;;;;25.60;14.30;;;;;;;7.20;87.37;99038.73;130687;1264;107688;-81
2023/12/20 12:54:15;;;;;;;16.00;7.40;;;;;;;7.23;87.56;99034.92;130945;1261;107357;-81
2023/12/20 12:57:21;;;;;;;10.50;7.10;;;;;;;7.29;87.58;99034.28;130848;1264;106795;-81
2023/12/20 13:00:27;;;;;;;11.00;7.90;;;;;;;7.33;87.38;99030.67;130924;1264;107641;-81
2023/12/20 13:03:34;;;;;;;133.60;68.00;;;;;;;7.31;87.20;99025.09;131031;1261;107160;-81
2023/12/20 13:06:41;;;;;;;328.00;133.30;;;;;;;7.27;87.29;99025.62;131012;1263;107873;-81
2023/12/20 13:09:46;;;;;;;514.10;210.40;;;;;;;7.20;86.75;99028.71;130974;1261;107475;-81
2023/12/20 13:12:52;;;;;;;374.90;148.60;;;;;;;7.11;86.83;99021.20;131103;1264;108289;-81
2023/12/20 13:15:58;;;;;;;271.70;120.20;;;;;;;7.05;86.82;99024.40;131094;1264;108768;-81
2023/12/20 13:19:03;;;;;;;249.50;118.40;;;;;;;7.01;86.14;99021.42;130959;1258;106632;-81
2023/12/20 13:22:09;;;;;;;72.00;38.50;;;;;;;7.00;86.18;99016.77;131005;1263;107591;-81
2023/12/20 13:25:14;;;;;;;27.40;14.60;;;;;;;6.97;85.54;99022.70;131000;1262;105903;-81
2023/12/20 13:28:21;;;;;;;13.90;7.70;;;;;;;6.97;85.71;99021.16;131102;1263;108698;-80
2023/12/20 13:31:27;;;;;;;11.20;7.00;;;;;;;6.97;85.62;99012.86;131163;1266;107795;-80
2023/12/20 13:34:32;;;;;;;13.00;7.10;;;;;;;6.98;85.43;99011.20;131274;1263;107622;-81
2023/12/20 13:37:39;;;;;;;13.20;7.40;;;;;;;6.94;85.46;99020.23;131086;1274;106633;-80
2023/12/20 13:40:45;;;;;;;11.60;6.30;;;;;;;6.84;84.61;99022.51;130979;1265;107714;-80
2023/12/20 13:43:50;;;;;;;14.00;9.40;;;;;;;6.70;84.37;99027.71;131154;1263;108680;-80
2023/12/20 13:46:56;;;;;;;17.10;8.90;;;;;;;6.59;84.85;99024.77;130993;1259;108496;-80
2023/12/20 13:50:02;;;;;;;12.60;6.60;;;;;;;6.57;85.42;99028.85;130968;1263;106127;-81
2023/12/20 13:53:07;;;;;;;20.60;11.10;;;;;;;6.57;85.27;99020.16;131078;1264;108411;-80
2023/12/20 13:56:13;;;;;;;13.60;7.20;;;;;;;6.59;84.89;99015.91;131052;1259;108667;-79
2023/12/20 13:59:18;;;;;;;12.60;6.80;;;;;;;6.56;84.71;99019.06;131125;1263;108345;-80
2023/12/20 14:02:24;;;;;;;177.30;89.00;;;;;;;6.56;84.66;99019.57;131161;1263;107753;-80
2023/12/20 14:05:30;;;;;;;223.50;91.70;;;;;;;6.56;85.03;99017.62;131267;1263;106406;-80
2023/12/20 14:08:36;;;;;;;140.10;53.80;;;;;;;6.57;84.75;99010.09;131474;1264;108166;-80
2023/12/20 14:11:43;;;;;;;663.00;296.10;;;;;;;6.56;84.89;99008.98;131365;1264;107050;-80
2023/12/20 14:14:48;;;;;;;257.00;83.50;;;;;;;6.53;84.80;99014.39;131720;1263;107092;-80
2023/12/20 14:17:54;;;;;;;400.20;147.40;;;;;;;6.47;84.77;99007.40;131585;1261;107944;-80
2023/12/20 14:21:00;;;;;;;590.00;244.30;;;;;;;6.44;84.64;99014.31;131431;1261;107780;-80